Archival Weather

Norman Y Mineta San Jose Intl

San Jose, California (KSJC)

Report from: Friday, February 2, 2024 2:53 AM PST
Current time: Friday, June 21, 2024 1:58 AM PDT

Current weather – Weather history – Daily summaries
Weather forecast

Temperature10.6°C (51.1°F)
Dew point8.3°C (46.9°F)
Winds 6 kts (3.1 m/s, 6.9 mph) Southeast (130°)
Visibility10 mi. (16.1 km)
Clouds Few clouds 3,800 ft. (1,158 m)
Ceiling: Broken clouds 5,000 ft. (1,524 m)
Overcast 6,500 ft. (1,981 m)
Altimeter29.82 in.Hg (1010 mB)
Precipitiation0.07 in. (2 mm)
Precip. events Rain ended 10:44 AM
Relative humidity86 %
Density altitude-245 ft. (-75 m)
Sea-level pressure101.0 kPa (1010 mB, 29.81 in.Hg)
Remarks Fully automated report
Automated weather observing station with precipitation discriminator
Flight conditions Visual Meteorological Conditions
Raw dataKSJC 021053Z AUTO 13006KT 10SM FEW038 BKN050 OVC065 11/08 A2982 RMK AO2 RAE44 SLP096 P0007 T01060083
An error has occurred. This application may no longer respond until reloaded. Reload 🗙